sensor_id;sensor_type;location;lat;lon;timestamp;pressure;altitude;pressure_sealevel;temperature;humidity
68193;BME280;55012;47.562;18.414;2023-01-01T00:01:08;100568.91;;;6.38;100.00
68193;BME280;55012;47.562;18.414;2023-01-01T00:03:34;100570.78;;;6.37;100.00
68193;BME280;55012;47.562;18.414;2023-01-01T00:06:12;100578.56;;;6.39;100.00
68193;BME280;55012;47.562;18.414;2023-01-01T00:08:38;100576.16;;;6.37;100.00
68193;BME280;55012;47.562;18.414;2023-01-01T00:11:06;100578.03;;;6.37;100.00
68193;BME280;55012;47.562;18.414;2023-01-01T00:13:33;100568.66;;;6.34;100.00
68193;BME280;55012;47.562;18.414;2023-01-01T00:16:05;100568.66;;;6.34;100.00
68193;BME280;55012;47.562;18.414;2023-01-01T00:18:31;100573.50;;;6.32;100.00
68193;BME280;55012;47.562;18.414;2023-01-01T00:21:10;100573.50;;;6.32;100.00
68193;BME280;55012;47.562;18.414;2023-01-01T00:23:37;100576.78;;;6.29;100.00
68193;BME280;55012;47.562;18.414;2023-01-01T00:26:10;100569.78;;;6.28;100.00
68193;BME280;55012;47.562;18.414;2023-01-01T00:28:35;100570.34;;;6.25;100.00
68193;BME280;55012;47.562;18.414;2023-01-01T00:31:12;100569.84;;;6.23;100.00
68193;BME280;55012;47.562;18.414;2023-01-01T00:33:38;100568.50;;;6.20;100.00
68193;BME280;55012;47.562;18.414;2023-01-01T00:36:17;100565.28;;;6.18;100.00
68193;BME280;55012;47.562;18.414;2023-01-01T00:38:44;100567.19;;;6.18;100.00
68193;BME280;55012;47.562;18.414;2023-01-01T00:41:10;100557.81;;;6.15;100.00
68193;BME280;55012;47.562;18.414;2023-01-01T00:43:36;100578.50;;;6.15;100.00
68193;BME280;55012;47.562;18.414;2023-01-01T00:46:03;100579.88;;;6.12;100.00
68193;BME280;55012;47.562;18.414;2023-01-01T00:48:29;100573.44;;;6.08;100.00
68193;BME280;55012;47.562;18.414;2023-01-01T00:50:54;100584.78;;;6.05;100.00
68193;BME280;55012;47.562;18.414;2023-01-01T00:53:20;100578.84;;;6.03;100.00
68193;BME280;55012;47.562;18.414;2023-01-01T00:55:47;100579.16;;;6.02;100.00
68193;BME280;55012;47.562;18.414;2023-01-01T00:58:13;100583.97;;;6.05;100.00
68193;BME280;55012;47.562;18.414;2023-01-01T01:00:39;100583.69;;;6.06;100.00
68193;BME280;55012;47.562;18.414;2023-01-01T01:03:05;100583.97;;;6.05;100.00
68193;BME280;55012;47.562;18.414;2023-01-01T01:05:32;100586.38;;;6.06;100.00
68193;BME280;55012;47.562;18.414;2023-01-01T01:07:58;100591.75;;;6.06;100.00
68193;BME280;55012;47.562;18.414;2023-01-01T01:10:24;100590.66;;;6.07;100.00
68193;BME280;55012;47.562;18.414;2023-01-01T01:12:51;100592.78;;;6.10;100.00
68193;BME280;55012;47.562;18.414;2023-01-01T01:15:17;100596.25;;;6.11;100.00
68193;BME280;55012;47.562;18.414;2023-01-01T01:17:43;100589.00;;;6.11;100.00
68193;BME280;55012;47.562;18.414;2023-01-01T01:20:09;100586.06;;;6.13;100.00
68193;BME280;55012;47.562;18.414;2023-01-01T01:22:35;100590.06;;;6.15;100.00
68193;BME280;55012;47.562;18.414;2023-01-01T01:25:01;100593.25;;;6.17;100.00
68193;BME280;55012;47.562;18.414;2023-01-01T01:27:27;100593.50;;;6.21;100.00
68193;BME280;55012;47.562;18.414;2023-01-01T01:29:53;100596.41;;;6.25;100.00
68193;BME280;55012;47.562;18.414;2023-01-01T01:32:18;100586.75;;;6.24;100.00
68193;BME280;55012;47.562;18.414;2023-01-01T01:34:44;100588.31;;;6.30;100.00
68193;BME280;55012;47.562;18.414;2023-01-01T01:37:10;100592.06;;;6.29;100.00
68193;BME280;55012;47.562;18.414;2023-01-01T01:39:36;100598.53;;;6.28;100.00
68193;BME280;55012;47.562;18.414;2023-01-01T01:42:02;100589.44;;;6.24;100.00
68193;BME280;55012;47.562;18.414;2023-01-01T01:44:59;100596.44;;;6.19;100.00
68193;BME280;55012;47.562;18.414;2023-01-01T01:52:37;100599.53;;;6.03;100.00
68193;BME280;55012;47.562;18.414;2023-01-01T01:55:07;100599.31;;;5.99;100.00
68193;BME280;55012;47.562;18.414;2023-01-01T01:57:33;100593.19;;;5.94;100.00
68193;BME280;55012;47.562;18.414;2023-01-01T02:00:00;100603.16;;;5.88;100.00
68193;BME280;55012;47.562;18.414;2023-01-01T02:02:35;100609.91;;;5.80;100.00
68193;BME280;55012;47.562;18.414;2023-01-01T02:05:03;100613.13;;;5.77;100.00
68193;BME280;55012;47.562;18.414;2023-01-01T02:07:29;100611.53;;;5.76;100.00
68193;BME280;55012;47.562;18.414;2023-01-01T02:09:56;100626.28;;;5.79;100.00
68193;BME280;55012;47.562;18.414;2023-01-01T02:12:23;100619.88;;;5.75;100.00
68193;BME280;55012;47.562;18.414;2023-01-01T02:14:48;100621.50;;;5.71;100.00
68193;BME280;55012;47.562;18.414;2023-01-01T02:17:22;100614.53;;;5.70;100.00
68193;BME280;55012;47.562;18.414;2023-01-01T02:27:47;100600.84;;;5.71;100.00
68193;BME280;55012;47.562;18.414;2023-01-01T02:30:15;100602.97;;;5.69;100.00
68193;BME280;55012;47.562;18.414;2023-01-01T02:32:53;100607.56;;;5.69;100.00
68193;BME280;55012;47.562;18.414;2023-01-01T02:35:23;100604.34;;;5.72;100.00
68193;BME280;55012;47.562;18.414;2023-01-01T02:40:46;100609.13;;;5.75;100.00
68193;BME280;55012;47.562;18.414;2023-01-01T02:43:13;100607.25;;;5.75;100.00
68193;BME280;55012;47.562;18.414;2023-01-01T02:45:38;100605.06;;;5.77;100.00
68193;BME280;55012;47.562;18.414;2023-01-01T02:51:31;100595.72;;;5.70;100.00
68193;BME280;55012;47.562;18.414;2023-01-01T03:05:28;100600.59;;;5.62;100.00
68193;BME280;55012;47.562;18.414;2023-01-01T03:08:09;100608.66;;;5.62;100.00
68193;BME280;55012;47.562;18.414;2023-01-01T03:10:57;100602.50;;;5.62;100.00
68193;BME280;55012;47.562;18.414;2023-01-01T03:16:01;100592.31;;;5.59;100.00
68193;BME280;55012;47.562;18.414;2023-01-01T03:18:34;100597.69;;;5.59;100.00
68193;BME280;55012;47.562;18.414;2023-01-01T03:21:04;100592.03;;;5.60;100.00
68193;BME280;55012;47.562;18.414;2023-01-01T03:23:36;100582.09;;;5.61;100.00
68193;BME280;55012;47.562;18.414;2023-01-01T03:26:08;100575.13;;;5.60;100.00
68193;BME280;55012;47.562;18.414;2023-01-01T03:28:44;100578.63;;;5.60;100.00
68193;BME280;55012;47.562;18.414;2023-01-01T03:31:14;100577.28;;;5.58;100.00
68193;BME280;55012;47.562;18.414;2023-01-01T03:33:45;100566.06;;;5.51;100.00
68193;BME280;55012;47.562;18.414;2023-01-01T03:36:21;100577.88;;;5.50;100.00
68193;BME280;55012;47.562;18.414;2023-01-01T03:38:56;100574.13;;;5.46;100.00
68193;BME280;55012;47.562;18.414;2023-01-01T03:46:40;100552.44;;;5.37;100.00
68193;BME280;55012;47.562;18.414;2023-01-01T03:49:08;100560.50;;;5.37;100.00
68193;BME280;55012;47.562;18.414;2023-01-01T03:58:30;100555.41;;;5.35;100.00
68193;BME280;55012;47.562;18.414;2023-01-01T04:00:23;100559.19;;;5.34;100.00
68193;BME280;55012;47.562;18.414;2023-01-01T04:02:56;100554.63;;;5.35;100.00
68193;BME280;55012;47.562;18.414;2023-01-01T04:05:24;100546.84;;;5.33;100.00
68193;BME280;55012;47.562;18.414;2023-01-01T04:07:50;100537.19;;;5.32;100.00
68193;BME280;55012;47.562;18.414;2023-01-01T04:10:17;100528.34;;;5.32;100.00
68193;BME280;55012;47.562;18.414;2023-01-01T04:12:46;100537.47;;;5.31;100.00
68193;BME280;55012;47.562;18.414;2023-01-01T04:15:14;100527.28;;;5.28;100.00
68193;BME280;55012;47.562;18.414;2023-01-01T04:17:39;100535.63;;;5.26;100.00
68193;BME280;55012;47.562;18.414;2023-01-01T04:20:05;100538.59;;;5.25;100.00
68193;BME280;55012;47.562;18.414;2023-01-01T04:22:32;100531.09;;;5.22;100.00
68193;BME280;55012;47.562;18.414;2023-01-01T04:24:57;100529.22;;;5.22;100.00
68193;BME280;55012;47.562;18.414;2023-01-01T04:27:23;100527.63;;;5.21;100.00
68193;BME280;55012;47.562;18.414;2023-01-01T04:29:48;100530.31;;;5.21;100.00
68193;BME280;55012;47.562;18.414;2023-01-01T04:32:14;100534.03;;;5.20;100.00
68193;BME280;55012;47.562;18.414;2023-01-01T04:34:39;100523.59;;;5.19;100.00
68193;BME280;55012;47.562;18.414;2023-01-01T04:37:05;100524.97;;;5.16;100.00
68193;BME280;55012;47.562;18.414;2023-01-01T04:39:30;100519.59;;;5.11;100.00
68193;BME280;55012;47.562;18.414;2023-01-01T04:41:55;100523.66;;;5.08;100.00
68193;BME280;55012;47.562;18.414;2023-01-01T04:44:21;100519.38;;;5.07;100.00
68193;BME280;55012;47.562;18.414;2023-01-01T04:46:46;100520.16;;;5.08;100.00
68193;BME280;55012;47.562;18.414;2023-01-01T04:49:12;100522.56;;;5.10;100.00
68193;BME280;55012;47.562;18.414;2023-01-01T04:51:37;100531.69;;;5.14;100.00
68193;BME280;55012;47.562;18.414;2023-01-01T04:54:03;100535.41;;;5.18;100.00
68193;BME280;55012;47.562;18.414;2023-01-01T04:56:28;100537.53;;;5.21;100.00
68193;BME280;55012;47.562;18.414;2023-01-01T04:58:54;100542.34;;;5.24;100.00
68193;BME280;55012;47.562;18.414;2023-01-01T05:01:24;100543.38;;;5.28;100.00
68193;BME280;55012;47.562;18.414;2023-01-01T05:03:49;100538.81;;;5.33;100.00
68193;BME280;55012;47.562;18.414;2023-01-01T05:06:15;100542.53;;;5.38;100.00
68193;BME280;55012;47.562;18.414;2023-01-01T05:08:43;100549.47;;;5.44;100.00
68193;BME280;55012;47.562;18.414;2023-01-01T05:11:14;100556.97;;;5.47;100.00
68193;BME280;55012;47.562;18.414;2023-01-01T05:13:42;100559.09;;;5.50;100.00
68193;BME280;55012;47.562;18.414;2023-01-01T05:16:11;100559.31;;;5.53;100.00
68193;BME280;55012;47.562;18.414;2023-01-01T05:18:37;100557.19;;;5.55;100.00
68193;BME280;55012;47.562;18.414;2023-01-01T05:21:09;100560.69;;;5.56;100.00
68193;BME280;55012;47.562;18.414;2023-01-01T05:23:35;100569.81;;;5.55;100.00
68193;BME280;55012;47.562;18.414;2023-01-01T05:26:14;100583.22;;;5.55;100.00
68193;BME280;55012;47.562;18.414;2023-01-01T05:28:41;100602.28;;;5.53;100.00
68193;BME280;55012;47.562;18.414;2023-01-01T05:31:15;100597.75;;;5.49;100.00
68193;BME280;55012;47.562;18.414;2023-01-01T05:33:41;100609.88;;;5.41;100.00
68193;BME280;55012;47.562;18.414;2023-01-01T05:36:08;100611.25;;;5.33;100.00
68193;BME280;55012;47.562;18.414;2023-01-01T05:38:34;100623.13;;;5.22;100.00
68193;BME280;55012;47.562;18.414;2023-01-01T05:41:08;100615.34;;;5.16;100.00
68193;BME280;55012;47.562;18.414;2023-01-01T05:43:34;100625.53;;;5.19;100.00
68193;BME280;55012;47.562;18.414;2023-01-01T05:46:04;100623.91;;;5.23;100.00
68193;BME280;55012;47.562;18.414;2023-01-01T05:48:30;100621.75;;;5.25;100.00
68193;BME280;55012;47.562;18.414;2023-01-01T05:51:04;100624.44;;;5.25;100.00
68193;BME280;55012;47.562;18.414;2023-01-01T05:53:30;100620.69;;;5.26;100.00
68193;BME280;55012;47.562;18.414;2023-01-01T05:55:56;100625.75;;;5.27;100.00
68193;BME280;55012;47.562;18.414;2023-01-01T05:58:22;100629.53;;;5.26;100.00
68193;BME280;55012;47.562;18.414;2023-01-01T06:00:47;100634.88;;;5.26;100.00
68193;BME280;55012;47.562;18.414;2023-01-01T06:03:13;100635.16;;;5.25;100.00
68193;BME280;55012;47.562;18.414;2023-01-01T06:05:38;100643.50;;;5.23;100.00
68193;BME280;55012;47.562;18.414;2023-01-01T06:08:04;100645.38;;;5.18;100.00
68193;BME280;55012;47.562;18.414;2023-01-01T06:10:29;100635.22;;;5.10;100.00
68193;BME280;55012;47.562;18.414;2023-01-01T06:12:55;100634.19;;;5.05;100.00
68193;BME280;55012;47.562;18.414;2023-01-01T06:15:26;100642.19;;;5.11;100.00
68193;BME280;55012;47.562;18.414;2023-01-01T06:17:52;100642.72;;;5.13;100.00
68193;BME280;55012;47.562;18.414;2023-01-01T06:20:18;100639.78;;;5.14;100.00
68193;BME280;55012;47.562;18.414;2023-01-01T06:22:44;100641.38;;;5.15;100.00
68193;BME280;55012;47.562;18.414;2023-01-01T06:25:10;100641.38;;;5.15;100.00
68193;BME280;55012;47.562;18.414;2023-01-01T06:27:35;100650.75;;;5.18;100.00
68193;BME280;55012;47.562;18.414;2023-01-01T06:30:04;100652.34;;;5.19;100.00
68193;BME280;55012;47.562;18.414;2023-01-01T06:32:30;100653.72;;;5.16;100.00
68193;BME280;55012;47.562;18.414;2023-01-01T06:34:55;100647.03;;;5.14;100.00
68193;BME280;55012;47.562;18.414;2023-01-01T06:37:21;100645.66;;;5.16;100.00
68193;BME280;55012;47.562;18.414;2023-01-01T06:39:46;100647.00;;;5.19;100.00
68193;BME280;55012;47.562;18.414;2023-01-01T06:42:12;100639.47;;;5.21;100.00
68193;BME280;55012;47.562;18.414;2023-01-01T06:44:37;100640.00;;;5.23;100.00
68193;BME280;55012;47.562;18.414;2023-01-01T06:47:02;100643.75;;;5.27;100.00
68193;BME280;55012;47.562;18.414;2023-01-01T06:49:28;100632.47;;;5.30;100.00
68193;BME280;55012;47.562;18.414;2023-01-01T06:51:53;100630.84;;;5.34;100.00
68193;BME280;55012;47.562;18.414;2023-01-01T06:54:19;100632.16;;;5.36;100.00
68193;BME280;55012;47.562;18.414;2023-01-01T06:56:44;100637.28;;;5.38;100.00
68193;BME280;55012;47.562;18.414;2023-01-01T06:59:10;100636.44;;;5.38;100.00
68193;BME280;55012;47.562;18.414;2023-01-01T07:01:36;100646.63;;;5.41;100.00
68193;BME280;55012;47.562;18.414;2023-01-01T07:04:06;100633.22;;;5.41;100.00
68193;BME280;55012;47.562;18.414;2023-01-01T07:06:32;100629.47;;;5.42;100.00
68193;BME280;55012;47.562;18.414;2023-01-01T07:08:58;100639.63;;;5.45;100.00
68193;BME280;55012;47.562;18.414;2023-01-01T07:11:24;100639.38;;;5.46;100.00
68193;BME280;55012;47.562;18.414;2023-01-01T07:13:50;100643.66;;;5.47;100.00
68193;BME280;55012;47.562;18.414;2023-01-01T07:16:16;100646.06;;;5.49;100.00
68193;BME280;55012;47.562;18.414;2023-01-01T07:18:41;100655.44;;;5.51;100.00
68193;BME280;55012;47.562;18.414;2023-01-01T07:21:23;100666.69;;;5.53;100.00
68193;BME280;55012;47.562;18.414;2023-01-01T07:23:50;100668.84;;;5.56;100.00
68193;BME280;55012;47.562;18.414;2023-01-01T07:26:15;100664.78;;;5.59;100.00
68193;BME280;55012;47.562;18.414;2023-01-01T07:28:41;100673.91;;;5.63;100.00
68193;BME280;55012;47.562;18.414;2023-01-01T07:31:07;100688.09;;;5.69;100.00
68193;BME280;55012;47.562;18.414;2023-01-01T07:33:33;100691.31;;;5.71;100.00
68193;BME280;55012;47.562;18.414;2023-01-01T07:35:58;100680.03;;;5.74;100.00
68193;BME280;55012;47.562;18.414;2023-01-01T07:38:24;100693.69;;;5.77;100.00
68193;BME280;55012;47.562;18.414;2023-01-01T07:40:49;100695.03;;;5.80;100.00
68193;BME280;55012;47.562;18.414;2023-01-01T07:43:15;100682.13;;;5.82;100.00
68193;BME280;55012;47.562;18.414;2023-01-01T07:45:40;100682.41;;;5.80;100.00
68193;BME280;55012;47.562;18.414;2023-01-01T07:48:06;100665.50;;;5.80;100.00
68193;BME280;55012;47.562;18.414;2023-01-01T07:50:33;100671.69;;;5.75;100.00
68193;BME280;55012;47.562;18.414;2023-01-01T07:52:59;100684.53;;;5.83;100.00
68193;BME280;55012;47.562;18.414;2023-01-01T07:55:26;100690.94;;;5.87;100.00
68193;BME280;55012;47.562;18.414;2023-01-01T07:57:51;100689.88;;;5.88;100.00
68193;BME280;55012;47.562;18.414;2023-01-01T08:00:18;100689.09;;;5.88;100.00
68193;BME280;55012;47.562;18.414;2023-01-01T08:02:44;100690.94;;;5.87;100.00
68193;BME280;55012;47.562;18.414;2023-01-01T08:05:10;100703.03;;;5.90;100.00
68193;BME280;55012;47.562;18.414;2023-01-01T08:07:36;100703.88;;;5.90;100.00
68193;BME280;55012;47.562;18.414;2023-01-01T08:10:04;100695.25;;;5.94;100.00
68193;BME280;55012;47.562;18.414;2023-01-01T08:12:30;100694.16;;;5.95;100.00
68193;BME280;55012;47.562;18.414;2023-01-01T08:14:55;100696.03;;;5.94;100.00
68193;BME280;55012;47.562;18.414;2023-01-01T08:17:21;100697.91;;;5.99;100.00
68193;BME280;55012;47.562;18.414;2023-01-01T08:19:46;100696.25;;;6.03;100.00
68193;BME280;55012;47.562;18.414;2023-01-01T08:22:14;100705.91;;;6.09;100.00
68193;BME280;55012;47.562;18.414;2023-01-01T08:24:39;100697.00;;;6.13;100.00
68193;BME280;55012;47.562;18.414;2023-01-01T08:27:05;100708.50;;;6.19;100.00
68193;BME280;55012;47.562;18.414;2023-01-01T08:29:30;100705.28;;;6.22;100.00
68193;BME280;55012;47.562;18.414;2023-01-01T08:31:56;100707.63;;;6.29;100.00
68193;BME280;55012;47.562;18.414;2023-01-01T08:34:21;100724.25;;;6.36;100.00
68193;BME280;55012;47.562;18.414;2023-01-01T08:36:47;100719.06;;;6.44;100.00
68193;BME280;55012;47.562;18.414;2023-01-01T08:39:12;100726.03;;;6.51;100.00
68193;BME280;55012;47.562;18.414;2023-01-01T08:41:37;100730.03;;;6.53;100.00
68193;BME280;55012;47.562;18.414;2023-01-01T08:44:03;100730.81;;;6.54;100.00
68193;BME280;55012;47.562;18.414;2023-01-01T08:46:28;100722.22;;;6.57;100.00
68193;BME280;55012;47.562;18.414;2023-01-01T08:48:54;100732.69;;;6.58;100.00
68193;BME280;55012;47.562;18.414;2023-01-01T08:51:19;100726.19;;;6.64;100.00
68193;BME280;55012;47.562;18.414;2023-01-01T08:53:45;100732.84;;;6.72;100.00
68193;BME280;55012;47.562;18.414;2023-01-01T08:56:11;100727.66;;;6.81;100.00
68193;BME280;55012;47.562;18.414;2023-01-01T08:58:40;100734.03;;;6.90;100.00
68193;BME280;55012;47.562;18.414;2023-01-01T09:01:07;100738.28;;;6.96;100.00
68193;BME280;55012;47.562;18.414;2023-01-01T09:03:33;100743.59;;;7.01;100.00
68193;BME280;55012;47.562;18.414;2023-01-01T09:05:58;100734.19;;;7.03;100.00
68193;BME280;55012;47.562;18.414;2023-01-01T09:08:25;100747.81;;;7.12;100.00
68193;BME280;55012;47.562;18.414;2023-01-01T09:10:51;100754.22;;;7.16;100.00
68193;BME280;55012;47.562;18.414;2023-01-01T09:13:19;100752.84;;;7.19;100.00
68193;BME280;55012;47.562;18.414;2023-01-01T09:15:45;100745.03;;;7.17;100.00
68193;BME280;55012;47.562;18.414;2023-01-01T09:18:11;100757.13;;;7.20;100.00
68193;BME280;55012;47.562;18.414;2023-01-01T09:20:37;100760.06;;;7.23;100.00
68193;BME280;55012;47.562;18.414;2023-01-01T09:23:03;100759.47;;;7.26;100.00
68193;BME280;55012;47.562;18.414;2023-01-01T09:25:29;100762.44;;;7.30;100.00
68193;BME280;55012;47.562;18.414;2023-01-01T09:27:57;100759.72;;;7.30;100.00
68193;BME280;55012;47.562;18.414;2023-01-01T09:30:22;100764.03;;;7.31;100.00
68193;BME280;55012;47.562;18.414;2023-01-01T09:32:48;100760.75;;;7.34;100.00
68193;BME280;55012;47.562;18.414;2023-01-01T09:35:13;100748.91;;;7.35;100.00
68193;BME280;55012;47.562;18.414;2023-01-01T09:37:39;100761.00;;;7.38;100.00
68193;BME280;55012;47.562;18.414;2023-01-01T09:40:04;100763.31;;;7.44;100.00
68193;BME280;55012;47.562;18.414;2023-01-01T09:45:16;100756.97;;;7.59;100.00
68193;BME280;55012;47.562;18.414;2023-01-01T09:47:46;100756.03;;;7.69;100.00
68193;BME280;55012;47.562;18.414;2023-01-01T09:50:24;100753.25;;;7.79;100.00
68193;BME280;55012;47.562;18.414;2023-01-01T09:53:00;100757.09;;;7.92;100.00
68193;BME280;55012;47.562;18.414;2023-01-01T09:55:50;100758.06;;;8.01;100.00
68193;BME280;55012;47.562;18.414;2023-01-01T09:58:20;100758.94;;;8.15;100.00
68193;BME280;55012;47.562;18.414;2023-01-01T10:00:51;100764.50;;;8.24;100.00
68193;BME280;55012;47.562;18.414;2023-01-01T10:03:32;100761.94;;;8.32;100.00
68193;BME280;55012;47.562;18.414;2023-01-01T10:06:22;100758.84;;;8.44;100.00
68193;BME280;55012;47.562;18.414;2023-01-01T10:16:54;100770.31;;;8.68;100.00
68193;BME280;55012;47.562;18.414;2023-01-01T10:19:48;100773.72;;;8.74;100.00
68193;BME280;55012;47.562;18.414;2023-01-01T10:22:21;100775.56;;;8.79;100.00
68193;BME280;55012;47.562;18.414;2023-01-01T10:24:54;100777.06;;;8.85;100.00
68193;BME280;55012;47.562;18.414;2023-01-01T10:27:35;100768.28;;;8.93;100.00
68193;BME280;55012;47.562;18.414;2023-01-01T10:30:16;100758.50;;;8.97;100.00
68193;BME280;55012;47.562;18.414;2023-01-01T10:32:51;100763.59;;;8.98;100.00
68193;BME280;55012;47.562;18.414;2023-01-01T10:35:20;100758.81;;;8.95;100.00
68193;BME280;55012;47.562;18.414;2023-01-01T10:37:47;100757.28;;;8.89;100.00
68193;BME280;55012;47.562;18.414;2023-01-01T10:40:22;100756.06;;;8.82;100.00
68193;BME280;55012;47.562;18.414;2023-01-01T10:42:51;100743.25;;;8.73;100.00
68193;BME280;55012;47.562;18.414;2023-01-01T10:45:22;100750.72;;;8.63;100.00
68193;BME280;55012;47.562;18.414;2023-01-01T10:50:58;100726.50;;;8.58;100.00
68193;BME280;55012;47.562;18.414;2023-01-01T10:53:33;100729.00;;;8.54;100.00
68193;BME280;55012;47.562;18.414;2023-01-01T11:01:05;100727.56;;;8.43;100.00
68193;BME280;55012;47.562;18.414;2023-01-01T11:03:31;100733.53;;;8.40;100.00
68193;BME280;55012;47.562;18.414;2023-01-01T11:08:46;100728.22;;;8.35;100.00
68193;BME280;55012;47.562;18.414;2023-01-01T11:11:26;100733.59;;;8.35;100.00
68193;BME280;55012;47.562;18.414;2023-01-01T11:13:54;100728.22;;;8.35;100.00
68193;BME280;55012;47.562;18.414;2023-01-01T11:16:21;100723.09;;;8.33;100.00
68193;BME280;55012;47.562;18.414;2023-01-01T11:18:48;100729.28;;;8.34;100.00
68193;BME280;55012;47.562;18.414;2023-01-01T11:21:19;100720.41;;;8.33;100.00
68193;BME280;55012;47.562;18.414;2023-01-01T11:23:46;100717.44;;;8.35;100.00
68193;BME280;55012;47.562;18.414;2023-01-01T11:28:42;100719.75;;;8.41;100.00
68193;BME280;55012;47.562;18.414;2023-01-01T11:31:16;100711.59;;;8.47;100.00
68193;BME280;55012;47.562;18.414;2023-01-01T11:33:53;100709.91;;;8.51;100.00
68193;BME280;55012;47.562;18.414;2023-01-01T11:36:30;100708.72;;;8.57;100.00
68193;BME280;55012;47.562;18.414;2023-01-01T11:41:42;100716.44;;;8.63;100.00
68193;BME280;55012;47.562;18.414;2023-01-01T11:44:09;100712.59;;;8.69;100.00
68193;BME280;55012;47.562;18.414;2023-01-01T11:46:37;100703.09;;;8.72;100.00
68193;BME280;55012;47.562;18.414;2023-01-01T11:49:11;100707.31;;;8.78;100.00
68193;BME280;55012;47.562;18.414;2023-01-01T11:51:37;100718.00;;;8.83;100.00
68193;BME280;55012;47.562;18.414;2023-01-01T11:54:30;100706.31;;;8.88;100.00
68193;BME280;55012;47.562;18.414;2023-01-01T11:57:22;100700.81;;;8.93;100.00
68193;BME280;55012;47.562;18.414;2023-01-01T12:00:00;100695.03;;;8.99;100.00
68193;BME280;55012;47.562;18.414;2023-01-01T12:02:40;100691.16;;;9.06;100.00
68193;BME280;55012;47.562;18.414;2023-01-01T12:05:52;100690.75;;;9.12;100.00
68193;BME280;55012;47.562;18.414;2023-01-01T12:08:14;100686.34;;;9.16;100.00
68193;BME280;55012;47.562;18.414;2023-01-01T12:10:50;100697.25;;;9.25;100.00
68193;BME280;55012;47.562;18.414;2023-01-01T12:13:21;100696.06;;;9.31;100.00
68193;BME280;55012;47.562;18.414;2023-01-01T12:16:10;100694.84;;;9.37;100.00
68193;BME280;55012;47.562;18.414;2023-01-01T12:18:44;100699.88;;;9.44;100.00
68193;BME280;55012;47.562;18.414;2023-01-01T12:21:28;100702.44;;;9.49;100.00
68193;BME280;55012;47.562;18.414;2023-01-01T12:23:54;100701.56;;;9.53;100.00
68193;BME280;55012;47.562;18.414;2023-01-01T12:34:44;100700.94;;;9.70;100.00
68193;BME280;55012;47.562;18.414;2023-01-01T12:40:32;100700.69;;;9.80;100.00
68193;BME280;55012;47.562;18.414;2023-01-01T12:43:10;100695.47;;;9.84;100.00
68193;BME280;55012;47.562;18.414;2023-01-01T12:59:10;100705.22;;;10.07;100.00
68193;BME280;55012;47.562;18.414;2023-01-01T13:01:38;100701.13;;;10.10;100.00
68193;BME280;55012;47.562;18.414;2023-01-01T13:04:13;100699.72;;;10.12;100.00
68193;BME280;55012;47.562;18.414;2023-01-01T13:06:44;100698.59;;;10.13;100.00
68193;BME280;55012;47.562;18.414;2023-01-01T13:09:18;100692.56;;;10.17;100.00
68193;BME280;55012;47.562;18.414;2023-01-01T13:11:49;100693.09;;;10.19;100.00
68193;BME280;55012;47.562;18.414;2023-01-01T13:14:15;100699.00;;;10.21;100.00
68193;BME280;55012;47.562;18.414;2023-01-01T13:16:45;100691.69;;;10.21;100.00
68193;BME280;55012;47.562;18.414;2023-01-01T13:19:35;100699.41;;;10.28;100.00
68193;BME280;55012;47.562;18.414;2023-01-01T13:25:21;100708.16;;;10.33;100.00
68193;BME280;55012;47.562;18.414;2023-01-01T13:38:58;100733.41;;;10.43;100.00
68193;BME280;55012;47.562;18.414;2023-01-01T13:44:10;100739.31;;;10.45;100.00
68193;BME280;55012;47.562;18.414;2023-01-01T13:49:19;100739.78;;;10.47;100.00
68193;BME280;55012;47.562;18.414;2023-01-01T14:00:33;100743.41;;;10.42;100.00
68193;BME280;55012;47.562;18.414;2023-01-01T14:03:13;100736.41;;;10.41;100.00
68193;BME280;55012;47.562;18.414;2023-01-01T14:05:50;100742.59;;;10.41;100.00
68193;BME280;55012;47.562;18.414;2023-01-01T14:08:36;100734.22;;;10.43;100.00
68193;BME280;55012;47.562;18.414;2023-01-01T14:11:16;100743.13;;;10.44;100.00
68193;BME280;55012;47.562;18.414;2023-01-01T14:13:42;100744.72;;;10.45;100.00
68193;BME280;55012;47.562;18.414;2023-01-01T14:16:09;100742.00;;;10.45;100.00
68193;BME280;55012;47.562;18.414;2023-01-01T14:18:43;100742.00;;;10.45;100.00
68193;BME280;55012;47.562;18.414;2023-01-01T14:21:13;100742.31;;;10.43;100.00
68193;BME280;55012;47.562;18.414;2023-01-01T14:23:42;100741.53;;;10.43;100.00
68193;BME280;55012;47.562;18.414;2023-01-01T14:26:12;100744.50;;;10.41;100.00
68193;BME280;55012;47.562;18.414;2023-01-01T14:28:39;100747.72;;;10.43;100.00
68193;BME280;55012;47.562;18.414;2023-01-01T14:31:10;100740.41;;;10.44;100.00
68193;BME280;55012;47.562;18.414;2023-01-01T14:33:37;100743.41;;;10.42;100.00
68193;BME280;55012;47.562;18.414;2023-01-01T14:36:05;100745.44;;;10.36;100.00
68193;BME280;55012;47.562;18.414;2023-01-01T14:38:33;100738.06;;;10.28;100.00
68193;BME280;55012;47.562;18.414;2023-01-01T14:43:37;100737.38;;;10.23;100.00
68193;BME280;55012;47.562;18.414;2023-01-01T14:46:05;100748.19;;;10.23;100.00
68193;BME280;55012;47.562;18.414;2023-01-01T14:48:31;100739.28;;;10.22;100.00
68193;BME280;55012;47.562;18.414;2023-01-01T14:50:57;100740.56;;;10.25;100.00
68193;BME280;55012;47.562;18.414;2023-01-01T14:53:31;100736.25;;;10.24;100.00
68193;BME280;55012;47.562;18.414;2023-01-01T14:55:57;100732.56;;;10.20;100.00